createdAt,value
2016-07-29T00:00:05.881Z,94.64
2016-07-29T00:01:06.126Z,93.88
2016-07-29T00:02:05.584Z,94.07
2016-07-29T00:03:05.962Z,93.54
2016-07-29T00:04:05.954Z,93.63
2016-07-29T00:05:05.350Z,94.07
2016-07-29T00:06:05.319Z,94.17
2016-07-29T00:07:05.344Z,94.89
2016-07-29T00:08:05.424Z,94.21
2016-07-29T00:09:05.244Z,94.69
2016-07-29T00:10:05.934Z,93.16
2016-07-29T00:11:05.254Z,93.63
2016-07-29T00:12:05.544Z,94.02
2016-07-29T00:13:05.693Z,94.12
2016-07-29T00:14:06.490Z,93.26
2016-07-29T00:15:05.353Z,93.54
2016-07-29T00:16:06.247Z,94.07
2016-07-29T00:17:06.182Z,92.87
2016-07-29T00:18:06.430Z,93.11
2016-07-29T00:19:05.862Z,92.72
2016-07-29T00:20:05.745Z,92.63
2016-07-29T00:21:06.534Z,93.63
2016-07-29T00:22:06.323Z,93.49
2016-07-29T00:23:06.669Z,93.16
2016-07-29T00:24:06.337Z,93.26
2016-07-29T00:25:06.123Z,93.63
2016-07-29T00:26:06.977Z,94.31
2016-07-29T00:27:05.527Z,93.63
2016-07-29T00:28:06.676Z,93.35
2016-07-29T00:29:05.312Z,93.54
2016-07-29T00:30:06.310Z,94.02
2016-07-29T00:31:06.094Z,93.63
2016-07-29T00:33:06.009Z,93.54
2016-07-29T00:34:05.886Z,93.06
2016-07-29T00:35:06.087Z,93.26
2016-07-29T00:36:06.010Z,93.63
2016-07-29T00:37:06.356Z,93.54
2016-07-29T00:38:05.567Z,93.73
2016-07-29T00:39:05.797Z,93.73
2016-07-29T00:40:05.911Z,93.73
2016-07-29T00:41:07.159Z,94.02
2016-07-29T00:42:06.194Z,94.21
2016-07-29T00:43:05.861Z,93.54
2016-07-29T00:44:06.027Z,93.63
2016-07-29T00:45:06.858Z,93.44
2016-07-29T00:46:06.040Z,93.63
2016-07-29T00:47:06.255Z,93.83
2016-07-29T00:48:06.176Z,94.02
2016-07-29T00:49:06.231Z,94.5
2016-07-29T00:50:06.429Z,94.5
2016-07-29T00:51:06.901Z,94.89
2016-07-29T00:52:06.224Z,94.69
2016-07-29T00:53:07.209Z,94.98
2016-07-29T00:54:06.318Z,95.56
2016-07-29T00:55:07.768Z,96.32
2016-07-29T00:56:06.166Z,96.37
2016-07-29T00:57:07.191Z,96.66
2016-07-29T00:58:06.426Z,96.27
2016-07-29T00:59:06.417Z,96.66
2016-07-29T01:00:06.989Z,96.47
2016-07-29T01:01:06.806Z,95.22
2016-07-29T01:03:06.968Z,94.35
2016-07-29T01:04:06.833Z,93.88
2016-07-29T01:05:07.277Z,94.69
2016-07-29T01:06:06.556Z,93.73
2016-07-29T01:07:06.915Z,94.21
2016-07-29T01:08:06.680Z,94.31
2016-07-29T01:09:06.316Z,93.78
2016-07-29T01:10:08.253Z,94.02
2016-07-29T01:11:06.960Z,93.83
2016-07-29T01:12:06.440Z,93.93
2016-07-29T01:13:06.862Z,93.63
2016-07-29T01:14:08.287Z,93.35
2016-07-29T01:15:07.319Z,93.26
2016-07-29T01:16:08.410Z,92.87
2016-07-29T01:18:08.212Z,93.44
2016-07-29T01:19:08.232Z,93.11
2016-07-29T01:20:07.200Z,93.4
2016-07-29T01:21:06.886Z,94.21
2016-07-29T01:22:07.262Z,94.74
2016-07-29T01:23:08.206Z,95.7
2016-07-29T01:24:06.825Z,95.31
2016-07-29T01:25:07.902Z,94.64
2016-07-29T01:26:07.090Z,94.64
2016-07-29T01:27:06.855Z,94.07
2016-07-29T01:28:08.507Z,94.84
2016-07-29T01:29:08.162Z,94.45
2016-07-29T01:30:07.365Z,94.64
2016-07-29T01:31:07.436Z,94.45
2016-07-29T01:32:07.071Z,94.84
2016-07-29T01:33:08.328Z,94.74
2016-07-29T01:34:07.461Z,95.51
2016-07-29T01:35:09.172Z,95.7
2016-07-29T01:36:07.054Z,95.51
2016-07-29T01:37:07.242Z,95.6
2016-07-29T01:38:08.038Z,95.51
2016-07-29T01:39:07.406Z,95.7
2016-07-29T01:40:07.394Z,96.18
2016-07-29T01:41:07.221Z,96.42
2016-07-29T01:42:08.013Z,96.42
2016-07-29T01:43:07.852Z,96.27
2016-07-29T01:44:08.263Z,96.13
2016-07-29T01:45:08.447Z,95.41
2016-07-29T01:46:07.942Z,95.51
2016-07-29T01:47:07.491Z,95.41
2016-07-29T01:48:07.927Z,96.47
2016-07-29T01:49:08.215Z,96.89
2016-07-29T01:50:07.970Z,97.09
2016-07-29T01:51:07.748Z,95.65
2016-07-29T01:52:07.756Z,95.65
2016-07-29T01:53:08.153Z,94.93
2016-07-29T01:54:08.743Z,94.55
2016-07-29T01:55:08.425Z,94.93
2016-07-29T01:56:08.524Z,94.93
2016-07-29T01:57:08.110Z,94.45
2016-07-29T01:58:08.226Z,94.64
2016-07-29T01:59:07.997Z,94.35
2016-07-29T02:00:08.534Z,94.64
2016-07-29T02:01:08.453Z,95.6
2016-07-29T02:02:09.310Z,95.7
2016-07-29T02:03:08.059Z,94.69
2016-07-29T02:04:08.237Z,94.55
2016-07-29T02:05:08.411Z,94.31
2016-07-29T02:06:09.347Z,94.55
2016-07-29T02:07:08.204Z,95.51
2016-07-29T02:08:08.233Z,94.64
2016-07-29T02:09:08.288Z,94.35
2016-07-29T02:10:08.283Z,94.07
2016-07-29T02:11:08.913Z,94.64
2016-07-29T02:12:08.027Z,94.74
2016-07-29T02:13:10.075Z,93.98
2016-07-29T02:14:08.088Z,94.35
2016-07-29T02:15:08.201Z,94.45
2016-07-29T02:16:09.132Z,94.55
2016-07-29T02:17:08.656Z,94.6
2016-07-29T02:18:08.146Z,94.4
2016-07-29T02:19:08.824Z,94.6
2016-07-29T02:20:09.068Z,94.6
2016-07-29T02:21:09.355Z,94.6
2016-07-29T02:22:10.018Z,95.46
2016-07-29T02:23:08.522Z,95.17
2016-07-29T02:24:10.391Z,95.46
2016-07-29T02:25:09.783Z,95.46
2016-07-29T02:26:08.664Z,95.27
2016-07-29T02:27:08.833Z,94.69
2016-07-29T02:28:09.095Z,94.98
2016-07-29T02:29:08.978Z,95.36
2016-07-29T02:30:08.593Z,95.17
2016-07-29T02:31:08.733Z,95.17
2016-07-29T02:32:08.398Z,95.56
2016-07-29T02:33:09.283Z,95.56
2016-07-29T02:34:08.971Z,96.18
2016-07-29T02:35:09.867Z,96.08
2016-07-29T02:36:09.345Z,95.51
2016-07-29T02:37:09.015Z,96.37
2016-07-29T02:38:09.418Z,95.31
2016-07-29T02:39:08.733Z,95.22
2016-07-29T02:40:10.574Z,95.46
2016-07-29T02:41:09.311Z,95.65
2016-07-29T02:42:08.945Z,95.17
2016-07-29T02:43:09.746Z,95.41
2016-07-29T02:44:09.290Z,94.93
2016-07-29T02:45:09.095Z,95.61
2016-07-29T02:46:09.127Z,95.31
2016-07-29T02:47:09.961Z,94.55
2016-07-29T02:48:10.463Z,94.65
2016-07-29T02:49:10.495Z,94.69
2016-07-29T02:50:10.735Z,95.65
2016-07-29T02:51:10.435Z,96.66
2016-07-29T02:52:10.391Z,95.98
2016-07-29T02:53:09.797Z,95.41
2016-07-29T02:54:10.271Z,95.12
2016-07-29T02:55:09.180Z,96.37
2016-07-29T02:56:09.358Z,96.08
2016-07-29T02:57:09.554Z,96.37
2016-07-29T02:58:10.237Z,95.51
2016-07-29T02:59:09.768Z,95.61
2016-07-29T03:00:09.933Z,96.08
2016-07-29T03:01:10.374Z,95.51
2016-07-29T03:02:09.352Z,95.61
2016-07-29T03:03:09.877Z,95.22
2016-07-29T03:04:09.503Z,96.37
2016-07-29T03:05:09.520Z,96.18
2016-07-29T03:06:10.009Z,95.22
2016-07-29T03:07:10.821Z,95.41
2016-07-29T03:08:11.295Z,95.03
2016-07-29T03:09:09.496Z,95.41
2016-07-29T03:10:09.695Z,95.03
2016-07-29T03:11:09.923Z,94.74
2016-07-29T03:12:09.673Z,94.36
2016-07-29T03:13:10.178Z,94.74
2016-07-29T03:14:10.594Z,95.31
2016-07-29T03:15:09.621Z,95.31
2016-07-29T03:16:09.776Z,95.22
2016-07-29T03:17:09.737Z,95.12
2016-07-29T03:18:10.856Z,95.51
2016-07-29T03:19:10.029Z,95.22
2016-07-29T03:20:10.861Z,95.12
2016-07-29T03:21:10.350Z,95.31
2016-07-29T03:22:10.407Z,95.41
2016-07-29T03:23:10.603Z,95.22
2016-07-29T03:24:10.668Z,95.41
2016-07-29T03:25:10.444Z,95.41
2016-07-29T03:26:10.268Z,95.31
2016-07-29T03:27:10.256Z,95.22
2016-07-29T03:28:11.038Z,95.22
2016-07-29T03:29:10.252Z,95.79
2016-07-29T03:30:11.661Z,95.31
2016-07-29T03:31:10.599Z,95.31
2016-07-29T03:32:11.096Z,95.61
2016-07-29T03:33:10.858Z,95.22
2016-07-29T03:34:10.710Z,94.17
2016-07-29T03:35:10.540Z,94.74
2016-07-29T03:36:11.736Z,94.45
2016-07-29T03:37:10.544Z,95.31
2016-07-29T03:38:10.922Z,94.36
2016-07-29T03:39:11.450Z,95.03
2016-07-29T03:40:10.958Z,94.07
2016-07-29T03:41:10.464Z,96.22
2016-07-29T03:42:10.474Z,95.98
2016-07-29T03:43:11.352Z,95.56
2016-07-29T03:44:10.733Z,94.89
2016-07-29T03:45:11.127Z,95.27
2016-07-29T03:46:11.436Z,94.31
2016-07-29T03:47:10.850Z,94.98
2016-07-29T03:48:10.516Z,94.21
2016-07-29T03:49:10.905Z,95.27
2016-07-29T03:50:10.467Z,95.65
2016-07-29T03:51:11.386Z,96.51
2016-07-29T03:52:10.661Z,95.94
2016-07-29T03:53:11.620Z,96.42
2016-07-29T03:54:11.458Z,95.46
2016-07-29T03:55:11.271Z,95.17
2016-07-29T03:56:11.811Z,95.17
2016-07-29T03:57:11.695Z,94.89
2016-07-29T03:58:11.493Z,95.56
2016-07-29T03:59:10.771Z,96.8
2016-07-29T04:00:10.970Z,97.61
2016-07-29T04:01:11.144Z,97.71
2016-07-29T04:02:10.910Z,98.28
2016-07-29T04:03:11.333Z,97.52
2016-07-29T04:04:11.152Z,96.7
2016-07-29T04:05:10.660Z,95.94
2016-07-29T04:06:10.890Z,96.61
2016-07-29T04:07:12.036Z,95.65
2016-07-29T04:08:11.613Z,95.65
2016-07-29T04:09:11.300Z,95.56
2016-07-29T04:10:11.804Z,95.75
2016-07-29T04:11:11.272Z,96.22
2016-07-29T04:12:11.965Z,95.22
2016-07-29T04:13:12.085Z,95.03
2016-07-29T04:14:11.337Z,94.07
2016-07-29T04:15:11.811Z,94.64
2016-07-29T04:16:11.850Z,95.7
2016-07-29T04:17:11.490Z,95.03
2016-07-29T04:18:11.471Z,95.7
2016-07-29T04:19:11.524Z,94.64
2016-07-29T04:20:12.311Z,94.45
2016-07-29T04:21:11.205Z,95.03
2016-07-29T04:22:12.562Z,94.45
2016-07-29T04:23:11.871Z,94.74
2016-07-29T04:24:11.464Z,94.93
2016-07-29T04:25:11.454Z,95.31
2016-07-29T04:26:12.207Z,95.12
2016-07-29T04:27:11.855Z,95.17
2016-07-29T04:28:12.064Z,94.07
2016-07-29T04:29:12.219Z,95.41
2016-07-29T04:30:11.662Z,95.22
2016-07-29T04:31:11.543Z,94.84
2016-07-29T04:32:11.527Z,95.51
2016-07-29T04:33:12.584Z,96.47
2016-07-29T04:34:12.301Z,96.61
2016-07-29T04:35:11.819Z,96.7
2016-07-29T04:36:13.038Z,96.99
2016-07-29T04:37:11.913Z,97.04
2016-07-29T04:38:11.569Z,97.14
2016-07-29T04:39:12.048Z,97.18
2016-07-29T04:40:12.541Z,96.94
2016-07-29T04:41:12.003Z,97.23
2016-07-29T04:42:11.798Z,96.47
2016-07-29T04:43:13.853Z,96.66
2016-07-29T04:44:12.560Z,97.23
2016-07-29T04:45:12.289Z,97.85
2016-07-29T04:46:13.727Z,98.14
2016-07-29T04:47:12.202Z,98.24
2016-07-29T04:48:12.089Z,98.43
2016-07-29T04:49:13.359Z,98.24
2016-07-29T04:50:13.290Z,97.75
2016-07-29T04:51:13.211Z,98.05
2016-07-29T04:52:11.885Z,98.14
2016-07-29T04:53:12.967Z,97.95
2016-07-29T04:54:12.012Z,98.05
2016-07-29T04:55:12.443Z,97.85
2016-07-29T04:56:12.327Z,97.75
2016-07-29T04:57:12.978Z,97.75
2016-07-29T04:58:13.215Z,98.14
2016-07-29T04:59:12.785Z,97.75
2016-07-29T05:00:13.313Z,97.95
2016-07-29T05:01:12.303Z,97.95
2016-07-29T05:02:13.606Z,98.14
2016-07-29T05:03:12.306Z,98.05
2016-07-29T05:04:13.498Z,98.05
2016-07-29T05:05:13.127Z,97.75
2016-07-29T05:06:13.774Z,97.04
2016-07-29T05:07:12.660Z,96.18
2016-07-29T05:08:14.245Z,95.98
2016-07-29T05:09:13.557Z,95.6
2016-07-29T05:10:13.156Z,95.7
2016-07-29T05:11:12.954Z,96.47
2016-07-29T05:12:13.726Z,96.56
2016-07-29T05:13:13.834Z,95.41
2016-07-29T05:14:13.115Z,95.7
2016-07-29T05:15:13.488Z,95.31
2016-07-29T05:16:13.157Z,95.89
2016-07-29T05:17:12.998Z,95.22
2016-07-29T05:19:13.021Z,96.18
2016-07-29T05:20:13.152Z,96.18
2016-07-29T05:21:13.511Z,95.6
2016-07-29T05:22:13.195Z,94.93
2016-07-29T05:23:13.166Z,95.12
2016-07-29T05:24:13.312Z,94.93
2016-07-29T05:25:13.179Z,95.56
2016-07-29T05:26:14.097Z,95.26
2016-07-29T05:27:13.415Z,94.59
2016-07-29T05:28:13.125Z,94.45
2016-07-29T05:29:14.630Z,94.59
2016-07-29T05:30:13.863Z,94.59
2016-07-29T05:31:13.460Z,94.12
2016-07-29T05:32:13.067Z,94.35
2016-07-29T05:34:14.009Z,94.74
2016-07-29T05:35:14.245Z,94.74
2016-07-29T05:36:14.401Z,94.79
2016-07-29T05:37:13.584Z,94.89
2016-07-29T05:38:14.777Z,95.17
2016-07-29T05:39:13.303Z,94.59
2016-07-29T05:40:13.855Z,94.79
2016-07-29T05:41:13.005Z,94.98
2016-07-29T05:42:13.492Z,94.5
2016-07-29T05:43:13.669Z,94.98
2016-07-29T05:44:13.941Z,95.56
2016-07-29T05:45:14.318Z,95.75
2016-07-29T05:46:14.858Z,95.56
2016-07-29T05:47:14.321Z,95.65
2016-07-29T05:49:15.749Z,96.51
2016-07-29T05:50:16.542Z,96.51
2016-07-29T05:51:14.314Z,95.94
2016-07-29T05:52:14.412Z,95.46
2016-07-29T05:53:15.350Z,95.26
2016-07-29T05:54:14.927Z,96.42
2016-07-29T05:55:15.776Z,96.08
2016-07-29T05:56:14.083Z,96.08
2016-07-29T05:57:14.344Z,95.46
2016-07-29T05:58:14.904Z,95.36
2016-07-29T05:59:15.335Z,95.56
2016-07-29T06:00:15.786Z,95.46
2016-07-29T06:01:14.159Z,94.98
2016-07-29T06:02:15.397Z,94.69
2016-07-29T06:03:14.803Z,94.89
2016-07-29T06:04:14.704Z,96.51
2016-07-29T06:05:15.336Z,95.56
2016-07-29T06:06:15.108Z,94.89
2016-07-29T06:07:16.343Z,95.07
2016-07-29T06:08:14.180Z,95.75
2016-07-29T06:09:14.268Z,95.65
2016-07-29T06:10:14.692Z,96.42
2016-07-29T06:11:14.012Z,96.99
2016-07-29T06:12:14.081Z,96.51
2016-07-29T06:13:15.810Z,96.42
2016-07-29T06:14:14.972Z,96.99
2016-07-29T06:15:15.283Z,96.42
2016-07-29T06:16:14.739Z,97.18
2016-07-29T06:17:15.413Z,96.7
2016-07-29T06:18:14.581Z,96.75
2016-07-29T06:19:14.614Z,97.23
2016-07-29T06:20:14.522Z,96.22
2016-07-29T06:21:14.514Z,96.47
2016-07-29T06:22:15.061Z,96.08
2016-07-29T06:23:14.302Z,95.41
2016-07-29T06:24:14.554Z,96.27
2016-07-29T06:25:14.430Z,95.6
2016-07-29T06:26:15.053Z,95.46
2016-07-29T06:27:14.914Z,95.56
2016-07-29T06:28:15.813Z,95.84
2016-07-29T06:29:15.623Z,95.84
2016-07-29T06:30:14.439Z,94.02
2016-07-29T06:31:14.932Z,93.59
2016-07-29T06:32:15.671Z,94.54
2016-07-29T06:33:14.407Z,94.21
2016-07-29T06:34:15.754Z,94.59
2016-07-29T06:35:15.676Z,94.26
2016-07-29T06:36:14.763Z,93.49
2016-07-29T06:37:15.355Z,94.17
2016-07-29T06:38:14.822Z,93.3
2016-07-29T06:39:15.064Z,92.72
2016-07-29T06:40:14.787Z,92.34
2016-07-29T06:41:14.976Z,92.48
2016-07-29T06:42:14.887Z,91.42
2016-07-29T06:43:15.610Z,91.52
2016-07-29T06:44:14.861Z,91.05
2016-07-29T06:45:14.736Z,91.72
2016-07-29T06:46:14.736Z,91.91
2016-07-29T06:47:15.480Z,91.62
2016-07-29T06:48:14.863Z,91.62
2016-07-29T06:50:15.996Z,91.05
2016-07-29T06:51:14.760Z,91.24
2016-07-29T06:52:16.094Z,91.72
2016-07-29T06:53:15.412Z,90.85
2016-07-29T06:54:15.434Z,91.24
2016-07-29T06:55:15.833Z,90.95
2016-07-29T06:56:15.676Z,91.05
2016-07-29T06:57:15.632Z,91.14
2016-07-29T06:58:16.230Z,91.72
2016-07-29T06:59:15.839Z,92
2016-07-29T07:00:15.341Z,91.81
2016-07-29T07:01:15.497Z,91.91
2016-07-29T07:02:15.572Z,92.19
2016-07-29T07:03:15.509Z,91.05
2016-07-29T07:04:16.855Z,90.66
2016-07-29T07:05:15.588Z,91.14
2016-07-29T07:06:16.558Z,90.75
2016-07-29T07:07:16.687Z,91.24
2016-07-29T07:08:15.924Z,91.05
2016-07-29T07:09:15.862Z,91.81
2016-07-29T07:10:16.690Z,91.62
2016-07-29T07:11:16.291Z,91.72
2016-07-29T07:12:16.181Z,92.48
2016-07-29T07:13:16.647Z,91.91
2016-07-29T07:14:16.040Z,91.72
2016-07-29T07:15:16.390Z,91.24
2016-07-29T07:16:16.607Z,91.28
2016-07-29T07:17:16.617Z,90.22
2016-07-29T07:18:15.892Z,92.72
2016-07-29T07:19:16.015Z,91.28
2016-07-29T07:20:16.170Z,90.9
2016-07-29T07:21:17.106Z,89.69
2016-07-29T07:22:16.173Z,89.22
2016-07-29T07:23:16.642Z,88.93
2016-07-29T07:24:15.879Z,89.02
2016-07-29T07:25:15.774Z,89.5
2016-07-29T07:26:15.955Z,89.69
2016-07-29T07:27:16.749Z,90.37
2016-07-29T07:28:16.579Z,90.56
2016-07-29T07:29:15.933Z,89.6
2016-07-29T07:30:16.363Z,88.83
2016-07-29T07:31:16.320Z,88.54
2016-07-29T07:32:16.724Z,88.64
2016-07-29T07:33:16.878Z,88.45
2016-07-29T07:34:16.576Z,87.92
2016-07-29T07:35:17.558Z,88.97
2016-07-29T07:36:16.408Z,87.53
2016-07-29T07:37:16.441Z,86.95
2016-07-29T07:38:16.264Z,87.15
2016-07-29T07:39:16.722Z,86.18
2016-07-29T07:40:16.848Z,86.61
2016-07-29T07:41:17.742Z,86.71
2016-07-29T07:42:16.387Z,85.84
2016-07-29T07:43:16.986Z,86.27
2016-07-29T07:44:17.775Z,84.44
2016-07-29T07:45:16.458Z,84.92
2016-07-29T07:46:16.779Z,84.73
2016-07-29T07:47:16.687Z,85.02
2016-07-29T07:48:19.015Z,85.84
2016-07-29T07:49:16.395Z,84.4
2016-07-29T07:50:17.024Z,83.96
2016-07-29T07:51:17.007Z,83.15
2016-07-29T07:52:17.579Z,83
2016-07-29T07:53:17.259Z,84.59
2016-07-29T07:54:17.377Z,83.63
2016-07-29T07:55:16.509Z,84.4
2016-07-29T07:56:16.981Z,82.96
2016-07-29T07:57:17.402Z,83.29
2016-07-29T07:58:17.001Z,81.56
2016-07-29T07:59:17.230Z,84.34
2016-07-29T08:00:17.262Z,83.09
2016-07-29T08:01:18.187Z,82.75
2016-07-29T08:02:17.525Z,82.75
2016-07-29T08:03:17.957Z,81.5
2016-07-29T08:04:17.463Z,81.02
2016-07-29T08:05:17.554Z,80.25
2016-07-29T08:06:16.973Z,81.21
2016-07-29T08:07:18.468Z,79.71
2016-07-29T08:08:17.375Z,78.94
2016-07-29T08:09:17.524Z,79.46
2016-07-29T08:10:17.513Z,78.79
2016-07-29T08:11:18.164Z,77.63
2016-07-29T08:12:18.332Z,78.06
2016-07-29T08:13:17.646Z,78.83
2016-07-29T08:14:17.775Z,78.4
2016-07-29T08:15:17.512Z,77.73
2016-07-29T08:16:17.577Z,77.58
2016-07-29T08:17:18.652Z,78.06
2016-07-29T08:18:17.857Z,76.8
2016-07-29T08:19:18.647Z,75.09
2016-07-29T08:20:19.242Z,75.57
2016-07-29T08:21:17.620Z,72.92
2016-07-29T08:22:19.125Z,73.86
2016-07-29T08:23:18.372Z,74.18
2016-07-29T08:24:17.859Z,74.79
2016-07-29T08:25:18.088Z,73.73
2016-07-29T08:26:18.325Z,74.6
2016-07-29T08:27:17.975Z,73.6
2016-07-29T08:28:17.954Z,74.14
2016-07-29T08:29:17.932Z,75.49
2016-07-29T08:30:18.051Z,75.34
2016-07-29T08:31:18.175Z,76.36
2016-07-29T08:32:18.721Z,76.13
2016-07-29T08:33:18.900Z,75.84
2016-07-29T08:34:18.219Z,75.65
2016-07-29T08:35:18.104Z,75.78
2016-07-29T08:36:18.363Z,75.55
2016-07-29T08:37:18.633Z,75.45
2016-07-29T08:38:18.627Z,74.33
2016-07-29T08:39:18.703Z,75.36
2016-07-29T08:40:18.320Z,75.68
2016-07-29T08:41:18.835Z,75.99
2016-07-29T08:42:19.184Z,74.07
2016-07-29T08:43:18.395Z,73.33
2016-07-29T08:44:19.785Z,72.15
2016-07-29T08:45:18.360Z,71.12
2016-07-29T08:46:19.126Z,71.12
2016-07-29T08:47:18.916Z,70.06
2016-07-29T08:48:19.407Z,71.06
2016-07-29T08:49:18.781Z,69.62
2016-07-29T08:50:18.818Z,69.65
2016-07-29T08:51:18.822Z,70.94
2016-07-29T08:52:19.646Z,70.9
2016-07-29T08:53:20.246Z,69.64
2016-07-29T08:54:18.901Z,70.25
2016-07-29T08:55:19.149Z,69.64
2016-07-29T08:56:18.947Z,69.45
2016-07-29T08:57:19.035Z,71.22
2016-07-29T08:58:19.795Z,70.73
2016-07-29T08:59:19.978Z,70.67
2016-07-29T09:00:18.991Z,69.51
2016-07-29T09:01:18.970Z,69.96
2016-07-29T09:02:19.527Z,71.37
2016-07-29T09:03:19.773Z,72.08
2016-07-29T09:04:20.073Z,70.96
2016-07-29T09:05:19.819Z,71.22
2016-07-29T09:06:19.377Z,70.09
2016-07-29T09:07:20.371Z,68.68
2016-07-29T09:08:19.466Z,68.39
2016-07-29T09:09:19.243Z,66.82
2016-07-29T09:10:19.725Z,66.59
2016-07-29T09:11:19.047Z,67.78
2016-07-29T09:12:19.995Z,67.55
2016-07-29T09:13:18.958Z,65.34
2016-07-29T09:14:19.413Z,63.28
2016-07-29T09:15:20.603Z,63.43
2016-07-29T09:16:19.277Z,61.43
2016-07-29T09:17:19.441Z,60.95
2016-07-29T09:18:19.989Z,61.82
2016-07-29T09:19:20.589Z,62.14
2016-07-29T09:20:19.862Z,61.85
2016-07-29T09:21:20.121Z,60.21
2016-07-29T09:22:19.967Z,58.2
2016-07-29T09:23:21.177Z,56.1
2016-07-29T09:24:20.929Z,55.87
2016-07-29T09:25:19.786Z,57.22
2016-07-29T09:26:20.852Z,58.26
2016-07-29T09:27:20.096Z,60.33
2016-07-29T09:28:20.078Z,59.01
2016-07-29T09:29:19.918Z,61.49
2016-07-29T09:30:20.247Z,60.99
2016-07-29T09:31:20.867Z,59.18
2016-07-29T09:32:20.286Z,62.27
2016-07-29T09:33:20.905Z,59.63
2016-07-29T09:34:21.265Z,59.76
2016-07-29T09:35:20.072Z,57.59
2016-07-29T09:36:20.163Z,57.91
2016-07-29T09:37:20.202Z,57.62
2016-07-29T09:38:19.790Z,56.36
2016-07-29T09:39:20.330Z,57.84
2016-07-29T09:40:20.167Z,60.78
2016-07-29T09:41:20.513Z,63.08
2016-07-29T09:42:21.099Z,62.34
2016-07-29T09:43:21.155Z,62.47
2016-07-29T09:44:20.853Z,61.37
2016-07-29T09:45:20.564Z,61.63
2016-07-29T09:46:20.401Z,61.08
2016-07-29T09:47:20.347Z,62.05
2016-07-29T09:48:20.883Z,61.18
2016-07-29T09:49:20.817Z,60.47
2016-07-29T09:50:21.684Z,60.38
2016-07-29T09:51:20.647Z,61.34
2016-07-29T09:52:20.938Z,61.86
2016-07-29T09:53:20.645Z,60.79
2016-07-29T09:54:20.942Z,60.6
2016-07-29T09:55:22.439Z,60.11
2016-07-29T09:56:21.322Z,59.89
2016-07-29T09:57:21.180Z,58.5
2016-07-29T09:58:21.618Z,59.34
2016-07-29T09:59:21.617Z,60.02
2016-07-29T10:00:20.967Z,61.25
2016-07-29T10:01:22.831Z,60.35
2016-07-29T10:02:21.224Z,61.67
2016-07-29T10:03:20.802Z,61.99
2016-07-29T10:04:21.817Z,63.21
2016-07-29T10:05:21.181Z,63.34
2016-07-29T10:06:21.949Z,62.08
2016-07-29T10:07:20.999Z,61.31
2016-07-29T10:08:21.428Z,60.73
2016-07-29T10:09:21.499Z,60.73
2016-07-29T10:10:21.269Z,59.86
2016-07-29T10:11:21.053Z,57.84
2016-07-29T10:12:22.078Z,58.57
2016-07-29T10:13:21.471Z,56.86
2016-07-29T10:14:22.020Z,56.61
2016-07-29T10:15:21.087Z,57.24
2016-07-29T10:16:21.407Z,55.67
2016-07-29T10:17:21.701Z,54.75
2016-07-29T10:18:21.427Z,54.03
2016-07-29T10:19:21.600Z,52.97
2016-07-29T10:20:23.030Z,55.24
2016-07-29T10:21:22.047Z,54.3
2016-07-29T10:22:21.712Z,55.98
2016-07-29T10:23:21.927Z,56.26
2016-07-29T10:24:21.546Z,55.36
2016-07-29T10:25:22.445Z,56.16
2016-07-29T10:26:21.847Z,56.7
2016-07-29T10:27:22.090Z,57.51
2016-07-29T10:28:23.036Z,56.28
2016-07-29T10:29:21.720Z,56.11
2016-07-29T10:30:21.729Z,55.36
2016-07-29T10:31:21.968Z,55.07
2016-07-29T10:32:22.854Z,56.34
2016-07-29T10:33:21.798Z,55.36
2016-07-29T10:34:21.848Z,54.21
2016-07-29T10:35:22.664Z,54.23
2016-07-29T10:36:22.673Z,55.58
2016-07-29T10:37:21.765Z,55.92
2016-07-29T10:38:23.019Z,56.28
2016-07-29T10:39:22.492Z,57.76
2016-07-29T10:40:22.586Z,56.86
2016-07-29T10:41:21.979Z,57.82
2016-07-29T10:42:23.515Z,59.38
2016-07-29T10:43:22.579Z,60.02
2016-07-29T10:44:23.187Z,58.76
2016-07-29T10:45:22.177Z,59.8
2016-07-29T10:46:22.545Z,58.57
2016-07-29T10:47:22.293Z,59.83
2016-07-29T10:48:22.895Z,60.57
2016-07-29T10:50:23.283Z,61.31
2016-07-29T10:51:23.120Z,61.89
2016-07-29T10:52:22.612Z,62.15
2016-07-29T10:53:22.672Z,61.89
2016-07-29T10:54:22.977Z,62.08
2016-07-29T10:55:22.843Z,62.95
2016-07-29T10:56:23.664Z,62.15
2016-07-29T10:57:23.157Z,62.6
2016-07-29T10:58:23.649Z,62.7
2016-07-29T10:59:22.781Z,62.44
2016-07-29T11:00:23.872Z,62.92
2016-07-29T11:01:22.977Z,62.05
2016-07-29T11:02:22.822Z,63.21
2016-07-29T11:03:22.960Z,64.34
2016-07-29T11:05:23.104Z,64.92
2016-07-29T11:06:24.457Z,64.34
2016-07-29T11:07:23.492Z,65.98
2016-07-29T11:08:23.202Z,63.92
2016-07-29T11:09:24.168Z,64.43
2016-07-29T11:10:24.221Z,65.11
2016-07-29T11:11:23.021Z,66.04
2016-07-29T11:12:23.969Z,66.66
2016-07-29T11:13:24.830Z,69.09
2016-07-29T11:14:23.157Z,69.19
2016-07-29T11:15:24.121Z,68.71
2016-07-29T11:16:23.476Z,67.74
2016-07-29T11:17:23.474Z,68.71
2016-07-29T11:18:23.241Z,67.74
2016-07-29T11:20:23.427Z,67.55
2016-07-29T11:21:23.653Z,67.55
2016-07-29T11:22:23.951Z,66.3
2016-07-29T11:23:23.305Z,66.69
2016-07-29T11:24:25.414Z,66.2
2016-07-29T11:25:23.733Z,67.2
2016-07-29T11:26:23.702Z,66.52
2016-07-29T11:27:23.320Z,66.56
2016-07-29T11:28:23.904Z,66.24
2016-07-29T11:29:23.549Z,66.91
2016-07-29T11:30:23.840Z,67.71
2016-07-29T11:31:23.775Z,67.62
2016-07-29T11:32:25.021Z,68.45
2016-07-29T11:33:23.965Z,66.59
2016-07-29T11:35:24.353Z,65.24
2016-07-29T11:36:23.885Z,64.59
2016-07-29T11:37:24.224Z,62.7
2016-07-29T11:38:24.159Z,62.15
2016-07-29T11:39:25.312Z,61.89
2016-07-29T11:40:24.698Z,61.99
2016-07-29T11:41:24.942Z,62.76
2016-07-29T11:42:24.264Z,61.73
2016-07-29T11:43:25.119Z,60.6
2016-07-29T11:44:24.694Z,61.37
2016-07-29T11:45:24.128Z,60.11
2016-07-29T11:46:24.553Z,59.83
2016-07-29T11:47:24.031Z,61.6
2016-07-29T11:48:25.714Z,63.43
2016-07-29T11:50:24.740Z,61.15
2016-07-29T11:51:24.291Z,60.63
2016-07-29T11:52:24.505Z,61.27
2016-07-29T11:53:24.895Z,61.02
2016-07-29T11:54:25.933Z,61.12
2016-07-29T11:55:24.601Z,61.63
2016-07-29T11:56:25.001Z,61.44
2016-07-29T11:57:25.153Z,61.15
2016-07-29T11:58:25.015Z,61.12
2016-07-29T11:59:24.956Z,59.31
2016-07-29T12:00:26.948Z,59.05
2016-07-29T12:01:25.637Z,60.05
2016-07-29T12:02:25.552Z,58.35
2016-07-29T12:03:25.321Z,59.86
2016-07-29T12:05:25.796Z,59.73
2016-07-29T12:06:25.910Z,59.21
2016-07-29T12:07:26.312Z,58.72
2016-07-29T12:08:24.966Z,57.79
2016-07-29T12:09:25.112Z,57.44
2016-07-29T12:10:26.568Z,57.54
2016-07-29T12:11:25.109Z,56.98
2016-07-29T12:12:25.190Z,56.92
2016-07-29T12:13:25.834Z,57.76
2016-07-29T12:14:26.414Z,57.56
2016-07-29T12:15:26.439Z,56.02
2016-07-29T12:16:26.304Z,55.4
2016-07-29T12:17:26.139Z,55.22
2016-07-29T12:18:25.873Z,54.19
2016-07-29T12:20:25.760Z,54.45
2016-07-29T12:21:25.536Z,54.28
2016-07-29T12:22:25.565Z,54.09
2016-07-29T12:23:25.515Z,54.74
2016-07-29T12:24:25.515Z,56.49
2016-07-29T12:25:26.608Z,55.85
2016-07-29T12:26:27.089Z,57.5
2016-07-29T12:27:25.906Z,56.3
2016-07-29T12:28:25.892Z,55.49
2016-07-29T12:29:25.917Z,54.45
2016-07-29T12:30:26.742Z,54.19
2016-07-29T12:31:26.284Z,54.38
2016-07-29T12:32:25.836Z,55.27
2016-07-29T12:33:26.836Z,53.58
2016-07-29T12:35:25.935Z,52.54
2016-07-29T12:36:26.319Z,53.15
2016-07-29T12:37:26.059Z,54.26
2016-07-29T12:38:27.762Z,53.94
2016-07-29T12:39:26.401Z,53.23
2016-07-29T12:40:26.331Z,54.28
2016-07-29T12:41:27.369Z,54.84
2016-07-29T12:42:26.064Z,53.97
2016-07-29T12:43:27.046Z,52.9
2016-07-29T12:44:26.271Z,51.21
2016-07-29T12:45:26.601Z,52.03
2016-07-29T12:46:26.444Z,51.89
2016-07-29T12:47:27.446Z,52.93
2016-07-29T12:48:27.675Z,54.11
2016-07-29T12:49:26.319Z,54.64
2016-07-29T12:50:26.484Z,56.04
2016-07-29T12:51:26.303Z,54.3
2016-07-29T12:52:27.591Z,53.19
2016-07-29T12:53:27.499Z,55.35
2016-07-29T12:54:27.032Z,56.04
2016-07-29T12:55:27.456Z,56.4
2016-07-29T12:56:27.401Z,56.62
2016-07-29T12:57:26.698Z,56.79
2016-07-29T12:58:26.904Z,57.08
2016-07-29T12:59:27.356Z,57.76
2016-07-29T13:00:26.872Z,57.92
2016-07-29T13:01:27.308Z,57.92
2016-07-29T13:02:27.857Z,57.89
2016-07-29T13:03:27.846Z,59.38
2016-07-29T13:04:28.116Z,59.92
2016-07-29T13:05:27.754Z,60.86
2016-07-29T13:06:26.850Z,60.41
2016-07-29T13:07:27.449Z,62.05
2016-07-29T13:08:27.708Z,60.67
2016-07-29T13:09:27.734Z,60.86